sensor_id;sensor_type;location;lat;lon;timestamp;pressure;altitude;pressure_sealevel;temperature;humidity
12178;BME280;6152;48.728;9.256;2022-08-18T00:00:07;96855.59;;;17.36;100.00
12178;BME280;6152;48.728;9.256;2022-08-18T00:02:39;96850.06;;;17.30;100.00
12178;BME280;6152;48.728;9.256;2022-08-18T00:05:06;96854.50;;;17.20;100.00
12178;BME280;6152;48.728;9.256;2022-08-18T00:07:33;96839.56;;;17.20;100.00
12178;BME280;6152;48.728;9.256;2022-08-18T00:10:00;96832.63;;;17.19;100.00
12178;BME280;6152;48.728;9.256;2022-08-18T00:12:37;96833.19;;;17.23;100.00
12178;BME280;6152;48.728;9.256;2022-08-18T00:15:05;96832.06;;;17.25;100.00
12178;BME280;6152;48.728;9.256;2022-08-18T00:17:33;96833.44;;;17.29;100.00
12178;BME280;6152;48.728;9.256;2022-08-18T00:20:01;96825.69;;;17.28;100.00
12178;BME280;6152;48.728;9.256;2022-08-18T00:22:27;96827.63;;;17.26;100.00
12178;BME280;6152;48.728;9.256;2022-08-18T00:24:55;96816.00;;;17.28;100.00
12178;BME280;6152;48.728;9.256;2022-08-18T00:27:29;96817.94;;;17.26;100.00
12178;BME280;6152;48.728;9.256;2022-08-18T00:29:58;96812.69;;;17.26;100.00
12178;BME280;6152;48.728;9.256;2022-08-18T00:32:31;96816.59;;;17.12;100.00
12178;BME280;6152;48.728;9.256;2022-08-18T00:35:09;96812.16;;;17.03;100.00
12178;BME280;6152;48.728;9.256;2022-08-18T00:37:36;96815.06;;;17.00;100.00
12178;BME280;6152;48.728;9.256;2022-08-18T00:40:03;96811.59;;;17.00;100.00
12178;BME280;6152;48.728;9.256;2022-08-18T00:42:30;96802.75;;;17.01;100.00
12178;BME280;6152;48.728;9.256;2022-08-18T00:45:02;96808.56;;;16.95;100.00
12178;BME280;6152;48.728;9.256;2022-08-18T00:47:30;96803.59;;;16.92;100.00
12178;BME280;6152;48.728;9.256;2022-08-18T00:49:56;96800.53;;;16.87;100.00
12178;BME280;6152;48.728;9.256;2022-08-18T00:52:24;96808.56;;;16.95;100.00
12178;BME280;6152;48.728;9.256;2022-08-18T00:54:51;96805.38;;;17.01;100.00
12178;BME280;6152;48.728;9.256;2022-08-18T00:57:20;96795.69;;;17.01;100.00
12178;BME280;6152;48.728;9.256;2022-08-18T00:59:51;96789.03;;;17.07;100.00
12178;BME280;6152;48.728;9.256;2022-08-18T01:02:27;96797.34;;;17.12;100.00
12178;BME280;6152;48.728;9.256;2022-08-18T01:05:06;96784.47;;;17.18;100.00
12178;BME280;6152;48.728;9.256;2022-08-18T01:07:39;96791.22;;;17.21;100.00
12178;BME280;6152;48.728;9.256;2022-08-18T01:10:15;96793.84;;;17.21;100.00
12178;BME280;6152;48.728;9.256;2022-08-18T01:12:43;96788.59;;;17.21;100.00
12178;BME280;6152;48.728;9.256;2022-08-18T01:15:10;96783.06;;;17.24;100.00
12178;BME280;6152;48.728;9.256;2022-08-18T01:17:39;96782.78;;;17.27;100.00
12178;BME280;6152;48.728;9.256;2022-08-18T01:20:42;96770.59;;;17.26;100.00
12178;BME280;6152;48.728;9.256;2022-08-18T01:23:29;96762.31;;;17.21;100.00
12178;BME280;6152;48.728;9.256;2022-08-18T01:25:55;96763.00;;;17.23;100.00
12178;BME280;6152;48.728;9.256;2022-08-18T01:28:38;96750.94;;;17.30;100.00
12178;BME280;6152;48.728;9.256;2022-08-18T01:31:06;96744.56;;;17.33;100.00
12178;BME280;6152;48.728;9.256;2022-08-18T01:33:39;96748.69;;;17.35;100.00
12178;BME280;6152;48.728;9.256;2022-08-18T01:36:14;96739.84;;;17.36;100.00
12178;BME280;6152;48.728;9.256;2022-08-18T01:38:49;96746.19;;;17.43;100.00
12178;BME280;6152;48.728;9.256;2022-08-18T01:41:16;96744.22;;;17.45;100.00
12178;BME280;6152;48.728;9.256;2022-08-18T01:43:44;96739.81;;;17.46;100.00
12178;BME280;6152;48.728;9.256;2022-08-18T01:46:11;96734.97;;;17.41;100.00
12178;BME280;6152;48.728;9.256;2022-08-18T01:48:38;96737.50;;;17.33;100.00
12178;BME280;6152;48.728;9.256;2022-08-18T01:51:08;96725.19;;;17.24;100.00
12178;BME280;6152;48.728;9.256;2022-08-18T01:53:35;96719.69;;;17.17;100.00
12178;BME280;6152;48.728;9.256;2022-08-18T01:56:02;96719.69;;;17.17;100.00
12178;BME280;6152;48.728;9.256;2022-08-18T01:58:32;96712.78;;;17.16;100.00
12178;BME280;6152;48.728;9.256;2022-08-18T02:01:00;96702.69;;;17.12;100.00
12178;BME280;6152;48.728;9.256;2022-08-18T02:03:33;96702.28;;;17.07;100.00
12178;BME280;6152;48.728;9.256;2022-08-18T02:06:03;96705.34;;;17.02;100.00
12178;BME280;6152;48.728;9.256;2022-08-18T02:08:30;96715.16;;;17.00;100.00
12178;BME280;6152;48.728;9.256;2022-08-18T02:10:56;96713.38;;;17.01;100.00
12178;BME280;6152;48.728;9.256;2022-08-18T02:13:26;96720.56;;;16.99;100.00
12178;BME280;6152;48.728;9.256;2022-08-18T02:15:52;96714.63;;;16.97;100.00
12178;BME280;6152;48.728;9.256;2022-08-18T02:18:24;96711.03;;;16.98;100.00
12178;BME280;6152;48.728;9.256;2022-08-18T02:20:53;96698.41;;;17.01;100.00
12178;BME280;6152;48.728;9.256;2022-08-18T02:23:19;96711.16;;;17.06;100.00
12178;BME280;6152;48.728;9.256;2022-08-18T02:25:45;96707.53;;;17.07;100.00
12178;BME280;6152;48.728;9.256;2022-08-18T02:28:12;96702.44;;;17.05;100.00
12178;BME280;6152;48.728;9.256;2022-08-18T02:30:39;96706.56;;;17.08;100.00
12178;BME280;6152;48.728;9.256;2022-08-18T02:33:06;96706.84;;;17.05;100.00
12178;BME280;6152;48.728;9.256;2022-08-18T02:35:33;96704.22;;;17.05;100.00
12178;BME280;6152;48.728;9.256;2022-08-18T02:38:01;96714.06;;;17.03;100.00
12178;BME280;6152;48.728;9.256;2022-08-18T02:40:28;96702.44;;;17.05;100.00
12178;BME280;6152;48.728;9.256;2022-08-18T02:42:54;96710.88;;;17.09;100.00
12178;BME280;6152;48.728;9.256;2022-08-18T02:45:21;96708.91;;;17.11;100.00
12178;BME280;6152;48.728;9.256;2022-08-18T02:47:54;96710.28;;;17.15;100.00
12178;BME280;6152;48.728;9.256;2022-08-18T02:50:20;96712.63;;;17.18;100.00
12178;BME280;6152;48.728;9.256;2022-08-18T02:52:47;96713.59;;;17.17;100.00
12178;BME280;6152;48.728;9.256;2022-08-18T02:55:13;96714.59;;;17.16;100.00
12178;BME280;6152;48.728;9.256;2022-08-18T02:57:42;96713.19;;;17.12;100.00
12178;BME280;6152;48.728;9.256;2022-08-18T03:00:10;96726.63;;;17.09;100.00
12178;BME280;6152;48.728;9.256;2022-08-18T03:02:39;96710.88;;;17.09;100.00
12178;BME280;6152;48.728;9.256;2022-08-18T03:05:07;96712.25;;;17.13;100.00
12178;BME280;6152;48.728;9.256;2022-08-18T03:07:33;96707.66;;;17.15;100.00
12178;BME280;6152;48.728;9.256;2022-08-18T03:09:59;96701.44;;;17.16;100.00
12178;BME280;6152;48.728;9.256;2022-08-18T03:12:25;96700.59;;;17.15;100.00
12178;BME280;6152;48.728;9.256;2022-08-18T03:14:51;96694.38;;;17.16;100.00
12178;BME280;6152;48.728;9.256;2022-08-18T03:17:18;96684.66;;;17.17;100.00
12178;BME280;6152;48.728;9.256;2022-08-18T03:19:44;96682.03;;;17.17;100.00
12178;BME280;6152;48.728;9.256;2022-08-18T03:22:11;96691.03;;;17.14;100.00
12178;BME280;6152;48.728;9.256;2022-08-18T03:24:37;96702.41;;;17.15;100.00
12178;BME280;6152;48.728;9.256;2022-08-18T03:27:05;96695.88;;;17.19;100.00
12178;BME280;6152;48.728;9.256;2022-08-18T03:29:33;96695.88;;;17.19;100.00
12178;BME280;6152;48.728;9.256;2022-08-18T03:32:05;96694.63;;;17.23;100.00
12178;BME280;6152;48.728;9.256;2022-08-18T03:34:31;96701.09;;;17.29;100.00
12178;BME280;6152;48.728;9.256;2022-08-18T03:36:58;96694.34;;;17.26;100.00
12178;BME280;6152;48.728;9.256;2022-08-18T03:39:25;96685.19;;;17.30;100.00
12178;BME280;6152;48.728;9.256;2022-08-18T03:41:53;96686.81;;;17.31;100.00
12178;BME280;6152;48.728;9.256;2022-08-18T03:44:21;96683.09;;;17.34;100.00
12178;BME280;6152;48.728;9.256;2022-08-18T03:46:48;96692.91;;;17.32;100.00
12178;BME280;6152;48.728;9.256;2022-08-18T03:49:16;96690.53;;;17.38;100.00
12178;BME280;6152;48.728;9.256;2022-08-18T03:51:44;96679.75;;;17.32;100.00
12178;BME280;6152;48.728;9.256;2022-08-18T03:54:12;96678.94;;;17.31;100.00
12178;BME280;6152;48.728;9.256;2022-08-18T03:56:40;96683.66;;;17.28;100.00
12178;BME280;6152;48.728;9.256;2022-08-18T03:59:12;96688.91;;;17.28;100.00
12178;BME280;6152;48.728;9.256;2022-08-18T04:01:41;96683.66;;;17.28;100.00
12178;BME280;6152;48.728;9.256;2022-08-18T04:04:14;96669.00;;;17.25;100.00
12178;BME280;6152;48.728;9.256;2022-08-18T04:06:49;96677.59;;;17.27;100.00
12178;BME280;6152;48.728;9.256;2022-08-18T04:09:16;96676.22;;;17.23;100.00
12178;BME280;6152;48.728;9.256;2022-08-18T04:11:44;96684.09;;;17.23;100.00
12178;BME280;6152;48.728;9.256;2022-08-18T04:14:19;96689.78;;;17.18;100.00
12178;BME280;6152;48.728;9.256;2022-08-18T04:16:46;96690.06;;;17.15;100.00
12178;BME280;6152;48.728;9.256;2022-08-18T04:19:14;96699.75;;;17.15;100.00
12178;BME280;6152;48.728;9.256;2022-08-18T04:21:43;96695.75;;;17.11;100.00
12178;BME280;6152;48.728;9.256;2022-08-18T04:24:11;96702.00;;;17.10;100.00
12178;BME280;6152;48.728;9.256;2022-08-18T04:26:41;96709.47;;;17.05;100.00
12178;BME280;6152;48.728;9.256;2022-08-18T04:29:09;96701.59;;;17.05;100.00
12178;BME280;6152;48.728;9.256;2022-08-18T04:31:35;96703.56;;;17.03;100.00
12178;BME280;6152;48.728;9.256;2022-08-18T04:34:02;96703.41;;;17.04;100.00
12178;BME280;6152;48.728;9.256;2022-08-18T04:36:29;96701.47;;;17.06;100.00
12178;BME280;6152;48.728;9.256;2022-08-18T04:38:57;96703.66;;;17.11;100.00
12178;BME280;6152;48.728;9.256;2022-08-18T04:41:24;96706.97;;;17.13;100.00
12178;BME280;6152;48.728;9.256;2022-08-18T04:43:55;96705.31;;;17.12;100.00
12178;BME280;6152;48.728;9.256;2022-08-18T04:46:23;96714.28;;;17.19;100.00
12178;BME280;6152;48.728;9.256;2022-08-18T04:48:50;96715.25;;;17.18;100.00
12178;BME280;6152;48.728;9.256;2022-08-18T04:51:18;96717.03;;;17.17;100.00
12178;BME280;6152;48.728;9.256;2022-08-18T04:53:45;96722.72;;;17.23;100.00
12178;BME280;6152;48.728;9.256;2022-08-18T04:56:19;96726.84;;;17.25;100.00
12178;BME280;6152;48.728;9.256;2022-08-18T04:59:05;96723.94;;;17.28;100.00
12178;BME280;6152;48.728;9.256;2022-08-18T05:01:43;96729.59;;;17.33;100.00
12178;BME280;6152;48.728;9.256;2022-08-18T05:04:10;96723.78;;;17.39;100.00
12178;BME280;6152;48.728;9.256;2022-08-18T05:06:40;96720.97;;;17.50;100.00
12178;BME280;6152;48.728;9.256;2022-08-18T05:09:09;96730.63;;;17.59;100.00
12178;BME280;6152;48.728;9.256;2022-08-18T05:11:36;96719.91;;;17.71;100.00
12178;BME280;6152;48.728;9.256;2022-08-18T05:14:05;96719.72;;;17.82;100.00
12178;BME280;6152;48.728;9.256;2022-08-18T05:16:33;96723.13;;;17.92;100.00
12178;BME280;6152;48.728;9.256;2022-08-18T05:19:06;96721.94;;;18.04;100.00
12178;BME280;6152;48.728;9.256;2022-08-18T05:21:34;96718.13;;;18.16;100.00
12178;BME280;6152;48.728;9.256;2022-08-18T05:24:02;96726.09;;;18.24;100.00
12178;BME280;6152;48.728;9.256;2022-08-18T05:26:29;96720.91;;;18.32;100.00
12178;BME280;6152;48.728;9.256;2022-08-18T05:28:56;96725.56;;;18.38;100.00
12178;BME280;6152;48.728;9.256;2022-08-18T05:31:25;96724.00;;;18.45;100.00
12178;BME280;6152;48.728;9.256;2022-08-18T05:33:52;96713.75;;;18.42;100.00
12178;BME280;6152;48.728;9.256;2022-08-18T05:36:49;96719.66;;;18.54;100.00
12178;BME280;6152;48.728;9.256;2022-08-18T05:42:05;96714.97;;;18.65;100.00
12178;BME280;6152;48.728;9.256;2022-08-18T05:44:36;96709.44;;;18.69;100.00
12178;BME280;6152;48.728;9.256;2022-08-18T05:49:33;96701.19;;;18.89;100.00
12178;BME280;6152;48.728;9.256;2022-08-18T05:52:04;96710.63;;;19.00;100.00
12178;BME280;6152;48.728;9.256;2022-08-18T05:55:04;96705.09;;;19.11;100.00
12178;BME280;6152;48.728;9.256;2022-08-18T05:57:58;96710.44;;;19.19;100.00
12178;BME280;6152;48.728;9.256;2022-08-18T06:00:27;96717.06;;;19.31;100.00
12178;BME280;6152;48.728;9.256;2022-08-18T06:03:15;96728.25;;;19.43;100.00
12178;BME280;6152;48.728;9.256;2022-08-18T06:05:55;96733.06;;;19.47;100.00
12178;BME280;6152;48.728;9.256;2022-08-18T06:08:28;96728.59;;;19.48;100.00
12178;BME280;6152;48.728;9.256;2022-08-18T06:10:56;96729.09;;;19.51;100.00
12178;BME280;6152;48.728;9.256;2022-08-18T06:13:23;96736.03;;;19.52;100.00
12178;BME280;6152;48.728;9.256;2022-08-18T06:35:12;96743.00;;;20.70;100.00
12178;BME280;6152;48.728;9.256;2022-08-18T06:43:59;96742.69;;;20.89;100.00
12178;BME280;6152;48.728;9.256;2022-08-18T06:46:55;96734.09;;;21.11;100.00
12178;BME280;6152;48.728;9.256;2022-08-18T06:51:56;96734.06;;;21.35;100.00
12178;BME280;6152;48.728;9.256;2022-08-18T06:56:51;96731.22;;;21.45;100.00
12178;BME280;6152;48.728;9.256;2022-08-18T06:59:28;96732.88;;;21.46;100.00
12178;BME280;6152;48.728;9.256;2022-08-18T07:02:01;96736.22;;;21.48;100.00
12178;BME280;6152;48.728;9.256;2022-08-18T07:04:57;96742.63;;;21.53;100.00
12178;BME280;6152;48.728;9.256;2022-08-18T07:07:33;96738.16;;;21.54;100.00
12178;BME280;6152;48.728;9.256;2022-08-18T07:09:59;96754.91;;;21.46;100.00
12178;BME280;6152;48.728;9.256;2022-08-18T07:12:28;96760.53;;;21.43;100.00
12178;BME280;6152;48.728;9.256;2022-08-18T07:14:59;96752.06;;;21.56;100.00
12178;BME280;6152;48.728;9.256;2022-08-18T07:17:32;96768.78;;;21.56;100.00
12178;BME280;6152;48.728;9.256;2022-08-18T07:20:21;96770.94;;;21.61;100.00
12178;BME280;6152;48.728;9.256;2022-08-18T07:23:03;96776.56;;;21.50;100.00
12178;BME280;6152;48.728;9.256;2022-08-18T07:25:31;96776.09;;;21.46;100.00
12178;BME280;6152;48.728;9.256;2022-08-18T07:28:02;96788.03;;;21.26;100.00
12178;BME280;6152;48.728;9.256;2022-08-18T07:30:35;96782.03;;;21.00;100.00
12178;BME280;6152;48.728;9.256;2022-08-18T07:38:35;96794.56;;;20.65;100.00
12178;BME280;6152;48.728;9.256;2022-08-18T07:41:55;96804.97;;;20.59;100.00
12178;BME280;6152;48.728;9.256;2022-08-18T07:44:16;96803.78;;;20.45;100.00
12178;BME280;6152;48.728;9.256;2022-08-18T07:47:04;96808.63;;;20.16;100.00
12178;BME280;6152;48.728;9.256;2022-08-18T07:49:33;96796.41;;;20.15;100.00
12178;BME280;6152;48.728;9.256;2022-08-18T07:52:17;96797.75;;;20.19;100.00
12178;BME280;6152;48.728;9.256;2022-08-18T07:55:03;96799.56;;;20.18;100.00
12178;BME280;6152;48.728;9.256;2022-08-18T08:08:59;96799.31;;;20.38;100.00
12178;BME280;6152;48.728;9.256;2022-08-18T08:11:40;96807.47;;;20.18;100.00
12178;BME280;6152;48.728;9.256;2022-08-18T08:22:23;96761.63;;;19.94;100.00
12178;BME280;6152;48.728;9.256;2022-08-18T08:27:57;96744.88;;;20.19;100.00
12178;BME280;6152;48.728;9.256;2022-08-18T08:30:35;96747.78;;;20.34;100.00
12178;BME280;6152;48.728;9.256;2022-08-18T08:35:47;96747.78;;;20.50;100.00
12178;BME280;6152;48.728;9.256;2022-08-18T08:38:24;96752.28;;;20.57;100.00
12178;BME280;6152;48.728;9.256;2022-08-18T08:41:02;96751.28;;;20.75;100.00
12178;BME280;6152;48.728;9.256;2022-08-18T08:43:39;96752.78;;;21.01;100.00
12178;BME280;6152;48.728;9.256;2022-08-18T08:46:18;96763.53;;;21.40;100.00
12178;BME280;6152;48.728;9.256;2022-08-18T08:49:06;96762.09;;;21.68;100.00
12178;BME280;6152;48.728;9.256;2022-08-18T08:51:57;96768.31;;;22.00;100.00
12178;BME280;6152;48.728;9.256;2022-08-18T08:55:00;96761.88;;;22.33;100.00
12178;BME280;6152;48.728;9.256;2022-08-18T08:57:40;96768.66;;;22.67;100.00
12178;BME280;6152;48.728;9.256;2022-08-18T09:00:09;96764.25;;;22.82;100.00
12178;BME280;6152;48.728;9.256;2022-08-18T09:02:51;96767.56;;;23.21;100.00
12178;BME280;6152;48.728;9.256;2022-08-18T09:05:23;96775.53;;;23.88;99.15
12178;BME280;6152;48.728;9.256;2022-08-18T09:11:05;96729.47;;;24.31;91.89
12178;BME280;6152;48.728;9.256;2022-08-18T09:14:06;96710.47;;;25.75;83.08
12178;BME280;6152;48.728;9.256;2022-08-18T09:24:55;96707.44;;;28.85;58.21
12178;BME280;6152;48.728;9.256;2022-08-18T09:30:05;96722.88;;;30.00;54.54
12178;BME280;6152;48.728;9.256;2022-08-18T09:32:56;96726.69;;;31.41;47.52
12178;BME280;6152;48.728;9.256;2022-08-18T09:38:07;96716.66;;;33.36;41.60
12178;BME280;6152;48.728;9.256;2022-08-18T09:41:03;96715.19;;;34.66;37.47
12178;BME280;6152;48.728;9.256;2022-08-18T09:44:13;96718.63;;;34.61;36.79
12178;BME280;6152;48.728;9.256;2022-08-18T09:52:46;96728.91;;;34.37;37.36
12178;BME280;6152;48.728;9.256;2022-08-18T09:57:43;96726.75;;;34.39;37.31
12178;BME280;6152;48.728;9.256;2022-08-18T10:13:41;96703.50;;;34.38;36.42
12178;BME280;6152;48.728;9.256;2022-08-18T10:16:35;96689.34;;;33.16;38.74
12178;BME280;6152;48.728;9.256;2022-08-18T10:19:40;96686.97;;;33.91;38.37
12178;BME280;6152;48.728;9.256;2022-08-18T10:22:33;96685.41;;;34.17;36.90
12178;BME280;6152;48.728;9.256;2022-08-18T10:25:00;96688.75;;;34.73;36.28
12178;BME280;6152;48.728;9.256;2022-08-18T10:33:07;96654.56;;;38.21;31.30
12178;BME280;6152;48.728;9.256;2022-08-18T10:40:41;96597.59;;;37.96;30.84
12178;BME280;6152;48.728;9.256;2022-08-18T10:43:21;96608.50;;;37.76;30.80
12178;BME280;6152;48.728;9.256;2022-08-18T10:45:53;96632.72;;;37.67;31.09
12178;BME280;6152;48.728;9.256;2022-08-18T10:48:25;96642.75;;;37.77;30.52
12178;BME280;6152;48.728;9.256;2022-08-18T10:56:54;96622.19;;;35.35;34.26
12178;BME280;6152;48.728;9.256;2022-08-18T10:59:30;96611.16;;;33.98;36.39
12178;BME280;6152;48.728;9.256;2022-08-18T11:02:16;96611.56;;;34.12;36.92
12178;BME280;6152;48.728;9.256;2022-08-18T11:04:49;96621.19;;;34.24;36.17
12178;BME280;6152;48.728;9.256;2022-08-18T11:07:17;96608.88;;;33.90;36.32
12178;BME280;6152;48.728;9.256;2022-08-18T11:09:56;96615.88;;;33.47;37.47
12178;BME280;6152;48.728;9.256;2022-08-18T11:16:05;96624.91;;;33.03;37.93
12178;BME280;6152;48.728;9.256;2022-08-18T11:18:47;96618.81;;;33.63;37.93
12178;BME280;6152;48.728;9.256;2022-08-18T11:26:31;96611.00;;;36.46;32.52
12178;BME280;6152;48.728;9.256;2022-08-18T11:29:14;96615.06;;;36.38;32.80
12178;BME280;6152;48.728;9.256;2022-08-18T11:31:40;96605.91;;;36.70;31.82
12178;BME280;6152;48.728;9.256;2022-08-18T11:34:16;96607.00;;;36.99;30.77
12178;BME280;6152;48.728;9.256;2022-08-18T11:36:53;96614.56;;;36.62;31.27
12178;BME280;6152;48.728;9.256;2022-08-18T11:39:19;96613.69;;;36.26;31.71
12178;BME280;6152;48.728;9.256;2022-08-18T11:41:45;96613.34;;;35.50;33.01
12178;BME280;6152;48.728;9.256;2022-08-18T11:44:21;96606.31;;;36.06;32.13
12178;BME280;6152;48.728;9.256;2022-08-18T11:46:54;96599.75;;;34.44;34.84
12178;BME280;6152;48.728;9.256;2022-08-18T11:49:32;96593.56;;;33.74;36.35
12178;BME280;6152;48.728;9.256;2022-08-18T11:52:17;96585.97;;;32.32;38.25
12178;BME280;6152;48.728;9.256;2022-08-18T11:54:47;96588.25;;;31.84;39.19
12178;BME280;6152;48.728;9.256;2022-08-18T11:57:37;96586.94;;;32.26;38.73
12178;BME280;6152;48.728;9.256;2022-08-18T12:03:18;96578.56;;;32.56;37.40
12178;BME280;6152;48.728;9.256;2022-08-18T12:06:17;96577.16;;;32.53;38.03
12178;BME280;6152;48.728;9.256;2022-08-18T12:11:34;96565.25;;;33.16;37.95
12178;BME280;6152;48.728;9.256;2022-08-18T12:14:08;96563.53;;;33.92;36.72
12178;BME280;6152;48.728;9.256;2022-08-18T12:16:38;96563.38;;;34.25;35.34
12178;BME280;6152;48.728;9.256;2022-08-18T12:19:07;96564.72;;;34.55;35.01
12178;BME280;6152;48.728;9.256;2022-08-18T12:21:44;96578.75;;;34.51;34.74
12178;BME280;6152;48.728;9.256;2022-08-18T12:24:26;96568.88;;;33.65;35.94
12178;BME280;6152;48.728;9.256;2022-08-18T12:26:53;96573.88;;;33.35;36.29
12178;BME280;6152;48.728;9.256;2022-08-18T12:29:20;96581.44;;;32.66;37.80
12178;BME280;6152;48.728;9.256;2022-08-18T12:31:50;96570.09;;;32.19;38.10
12178;BME280;6152;48.728;9.256;2022-08-18T12:34:17;96551.72;;;31.88;39.55
12178;BME280;6152;48.728;9.256;2022-08-18T12:36:45;96555.69;;;31.45;39.74
12178;BME280;6152;48.728;9.256;2022-08-18T12:39:11;96555.94;;;30.86;40.67
12178;BME280;6152;48.728;9.256;2022-08-18T12:41:38;96545.31;;;30.79;41.77
12178;BME280;6152;48.728;9.256;2022-08-18T12:44:04;96546.91;;;30.34;42.16
12178;BME280;6152;48.728;9.256;2022-08-18T12:46:31;96537.56;;;29.95;43.07
12178;BME280;6152;48.728;9.256;2022-08-18T12:48:57;96542.84;;;29.35;43.83
12178;BME280;6152;48.728;9.256;2022-08-18T12:51:23;96527.03;;;29.27;44.78
12178;BME280;6152;48.728;9.256;2022-08-18T12:53:49;96522.34;;;29.04;44.84
12178;BME280;6152;48.728;9.256;2022-08-18T12:56:23;96528.38;;;28.82;46.46
12178;BME280;6152;48.728;9.256;2022-08-18T12:58:50;96526.13;;;28.79;46.06
12178;BME280;6152;48.728;9.256;2022-08-18T13:01:20;96521.28;;;28.87;47.13
12178;BME280;6152;48.728;9.256;2022-08-18T13:03:46;96511.41;;;28.63;47.22
12178;BME280;6152;48.728;9.256;2022-08-18T13:06:13;96507.56;;;28.52;48.46
12178;BME280;6152;48.728;9.256;2022-08-18T13:08:40;96495.22;;;28.51;48.04
12178;BME280;6152;48.728;9.256;2022-08-18T13:11:07;96499.63;;;28.71;47.32
12178;BME280;6152;48.728;9.256;2022-08-18T13:13:37;96498.00;;;28.63;47.14
12178;BME280;6152;48.728;9.256;2022-08-18T13:16:05;96492.13;;;28.54;47.09
12178;BME280;6152;48.728;9.256;2022-08-18T13:18:31;96488.78;;;28.34;48.13
12178;BME280;6152;48.728;9.256;2022-08-18T13:20:58;96492.72;;;28.07;48.92
12178;BME280;6152;48.728;9.256;2022-08-18T13:23:25;96510.16;;;28.16;49.00
12178;BME280;6152;48.728;9.256;2022-08-18T13:25:52;96497.53;;;28.23;48.70
12178;BME280;6152;48.728;9.256;2022-08-18T13:28:18;96498.13;;;28.25;49.03
12178;BME280;6152;48.728;9.256;2022-08-18T13:30:45;96494.50;;;28.44;48.82
12178;BME280;6152;48.728;9.256;2022-08-18T13:33:11;96493.22;;;28.47;48.38
12178;BME280;6152;48.728;9.256;2022-08-18T13:35:37;96502.88;;;28.73;48.23
12178;BME280;6152;48.728;9.256;2022-08-18T13:38:03;96497.19;;;29.05;46.86
12178;BME280;6152;48.728;9.256;2022-08-18T13:40:32;96492.81;;;29.29;45.17
12178;BME280;6152;48.728;9.256;2022-08-18T13:42:58;96483.84;;;29.17;45.56
12178;BME280;6152;48.728;9.256;2022-08-18T13:45:24;96486.50;;;29.17;45.07
12178;BME280;6152;48.728;9.256;2022-08-18T13:47:51;96482.81;;;29.00;45.87
12178;BME280;6152;48.728;9.256;2022-08-18T13:50:17;96480.56;;;29.15;45.56
12178;BME280;6152;48.728;9.256;2022-08-18T13:52:43;96474.47;;;29.08;45.21
12178;BME280;6152;48.728;9.256;2022-08-18T13:55:12;96482.38;;;28.85;45.70
12178;BME280;6152;48.728;9.256;2022-08-18T13:57:41;96480.44;;;28.92;45.69
12178;BME280;6152;48.728;9.256;2022-08-18T14:00:15;96469.34;;;28.88;45.88
12178;BME280;6152;48.728;9.256;2022-08-18T14:02:42;96467.97;;;28.79;46.05
12178;BME280;6152;48.728;9.256;2022-08-18T14:05:09;96467.22;;;28.72;46.38
12178;BME280;6152;48.728;9.256;2022-08-18T14:07:36;96473.22;;;28.74;46.81
12178;BME280;6152;48.728;9.256;2022-08-18T14:10:05;96473.81;;;28.94;46.08
12178;BME280;6152;48.728;9.256;2022-08-18T14:12:35;96477.31;;;28.95;45.48
12178;BME280;6152;48.728;9.256;2022-08-18T14:15:04;96478.34;;;28.94;45.35
12178;BME280;6152;48.728;9.256;2022-08-18T14:17:32;96475.38;;;28.84;45.33
12178;BME280;6152;48.728;9.256;2022-08-18T14:19:59;96476.41;;;28.83;45.34
12178;BME280;6152;48.728;9.256;2022-08-18T14:22:44;96494.25;;;28.71;45.87
12178;BME280;6152;48.728;9.256;2022-08-18T14:25:29;96489.72;;;28.46;46.80
12178;BME280;6152;48.728;9.256;2022-08-18T14:28:14;96476.78;;;28.43;46.61
12178;BME280;6152;48.728;9.256;2022-08-18T14:30:44;96470.59;;;28.43;46.89
12178;BME280;6152;48.728;9.256;2022-08-18T14:33:11;96473.03;;;28.26;46.84
12178;BME280;6152;48.728;9.256;2022-08-18T14:35:41;96470.22;;;28.39;47.01
12178;BME280;6152;48.728;9.256;2022-08-18T14:38:07;96481.31;;;28.43;45.61
12178;BME280;6152;48.728;9.256;2022-08-18T14:40:34;96487.03;;;28.46;45.76
12178;BME280;6152;48.728;9.256;2022-08-18T14:43:01;96485.84;;;28.42;44.69
12178;BME280;6152;48.728;9.256;2022-08-18T14:45:28;96482.78;;;28.39;45.40
12178;BME280;6152;48.728;9.256;2022-08-18T14:47:55;96484.56;;;28.45;45.46
12178;BME280;6152;48.728;9.256;2022-08-18T14:50:22;96477.84;;;28.60;44.58
12178;BME280;6152;48.728;9.256;2022-08-18T14:52:49;96478.63;;;28.68;44.24
12178;BME280;6152;48.728;9.256;2022-08-18T14:55:16;96480.66;;;28.66;43.42
12178;BME280;6152;48.728;9.256;2022-08-18T14:57:42;96486.91;;;28.59;44.27
12178;BME280;6152;48.728;9.256;2022-08-18T15:00:13;96486.78;;;28.54;43.34
12178;BME280;6152;48.728;9.256;2022-08-18T15:02:44;96477.47;;;28.57;43.66
12178;BME280;6152;48.728;9.256;2022-08-18T15:05:12;96481.56;;;28.59;43.53
12178;BME280;6152;48.728;9.256;2022-08-18T15:07:38;96482.00;;;28.56;44.20
12178;BME280;6152;48.728;9.256;2022-08-18T15:10:10;96492.72;;;28.56;44.05
12178;BME280;6152;48.728;9.256;2022-08-18T15:12:37;96490.59;;;28.40;44.39
12178;BME280;6152;48.728;9.256;2022-08-18T15:15:05;96492.34;;;28.28;45.21
12178;BME280;6152;48.728;9.256;2022-08-18T15:17:35;96488.66;;;27.98;45.44
12178;BME280;6152;48.728;9.256;2022-08-18T15:20:04;96499.78;;;27.95;45.65
12178;BME280;6152;48.728;9.256;2022-08-18T15:22:31;96499.78;;;27.95;45.79
12178;BME280;6152;48.728;9.256;2022-08-18T15:25:16;96493.78;;;27.99;45.97
12178;BME280;6152;48.728;9.256;2022-08-18T15:28:00;96491.41;;;27.85;46.42
12178;BME280;6152;48.728;9.256;2022-08-18T15:30:27;96490.63;;;27.78;47.01
12178;BME280;6152;48.728;9.256;2022-08-18T15:32:53;96491.91;;;27.69;47.24
12178;BME280;6152;48.728;9.256;2022-08-18T15:35:20;96491.00;;;27.43;47.98
12178;BME280;6152;48.728;9.256;2022-08-18T15:37:47;96483.22;;;27.35;48.61
12178;BME280;6152;48.728;9.256;2022-08-18T15:40:16;96488.81;;;27.34;49.14
12178;BME280;6152;48.728;9.256;2022-08-18T15:42:47;96484.97;;;27.10;49.33
12178;BME280;6152;48.728;9.256;2022-08-18T15:45:18;96485.44;;;26.81;50.10